createdAt,value
2022-10-28T00:01:10.352Z,3.13
2022-10-28T00:03:44.794Z,3.10
2022-10-28T00:06:13.447Z,2.83
2022-10-28T00:08:40.198Z,3.43
2022-10-28T00:11:11.180Z,3.97
2022-10-28T00:13:38.315Z,2.57
2022-10-28T00:16:05.679Z,3.10
2022-10-28T00:18:32.244Z,3.27
2022-10-28T00:21:03.010Z,3.40
2022-10-28T00:23:29.651Z,2.97
2022-10-28T00:25:56.531Z,3.47
2022-10-28T00:28:24.179Z,3.27
2022-10-28T00:30:50.817Z,3.27
2022-10-28T00:33:18.421Z,3.20
2022-10-28T00:35:45.007Z,3.03
2022-10-28T00:38:11.514Z,3.07
2022-10-28T00:40:38.152Z,3.10
2022-10-28T00:43:04.737Z,3.17
2022-10-28T00:45:31.293Z,2.80
2022-10-28T00:48:02.455Z,3.83
2022-10-28T00:50:51.976Z,3.20
2022-10-28T00:53:26.785Z,3.33
2022-10-28T00:55:54.243Z,3.20
2022-10-28T00:58:22.946Z,3.10
2022-10-28T01:00:49.453Z,3.17
2022-10-28T01:03:16.582Z,3.47
2022-10-28T01:05:44.268Z,3.03
2022-10-28T01:08:11.067Z,2.97
2022-10-28T01:10:43.498Z,3.43
2022-10-28T01:13:29.036Z,3.03
2022-10-28T01:16:14.647Z,2.67
2022-10-28T01:18:44.488Z,3.00
2022-10-28T01:21:26.538Z,3.67
2022-10-28T01:23:59.606Z,3.40
2022-10-28T01:26:31.086Z,3.50
2022-10-28T01:29:36.492Z,2.83
2022-10-28T01:32:11.474Z,3.03
2022-10-28T01:34:52.874Z,3.37
2022-10-28T01:37:19.423Z,3.53
2022-10-28T01:39:45.915Z,3.00
2022-10-28T01:42:34.869Z,3.40
2022-10-28T01:45:13.948Z,3.37
2022-10-28T01:47:53.523Z,3.43
2022-10-28T01:50:23.545Z,3.37
2022-10-28T01:52:51.293Z,3.97
2022-10-28T01:55:21.390Z,3.53
2022-10-28T01:57:48.639Z,3.77
2022-10-28T02:00:15.390Z,3.57
2022-10-28T02:02:42.850Z,3.97
2022-10-28T02:05:28.168Z,3.70
2022-10-28T02:07:57.912Z,3.30
2022-10-28T02:10:34.102Z,3.53
2022-10-28T02:13:02.500Z,3.33
2022-10-28T02:15:37.349Z,3.73
2022-10-28T02:18:22.748Z,4.03
2022-10-28T02:20:52.321Z,3.70
2022-10-28T02:23:26.059Z,3.27
2022-10-28T02:25:56.195Z,3.90
2022-10-28T02:28:27.597Z,4.07
2022-10-28T02:30:58.210Z,3.37
2022-10-28T02:33:26.930Z,3.77
2022-10-28T02:36:00.580Z,3.50
2022-10-28T02:38:33.452Z,3.47
2022-10-28T02:41:01.926Z,3.77
2022-10-28T02:43:30.107Z,3.30
2022-10-28T02:45:59.019Z,3.57
2022-10-28T02:48:28.343Z,3.90
2022-10-28T02:50:59.270Z,3.87
2022-10-28T02:53:33.741Z,4.00
2022-10-28T02:56:01.059Z,3.70
2022-10-28T02:58:27.703Z,4.27
2022-10-28T03:00:54.377Z,4.00
2022-10-28T03:03:21.065Z,3.70
2022-10-28T03:05:47.603Z,3.50
2022-10-28T03:08:14.197Z,3.90
2022-10-28T03:10:40.791Z,3.67
2022-10-28T03:13:07.315Z,3.70
2022-10-28T03:15:33.823Z,4.17
2022-10-28T03:18:00.388Z,3.83
2022-10-28T03:20:26.980Z,3.73
2022-10-28T03:22:53.760Z,4.63
2022-10-28T03:25:20.563Z,3.87
2022-10-28T03:27:47.181Z,4.50
2022-10-28T03:30:14.701Z,4.53
2022-10-28T03:32:42.420Z,4.13
2022-10-28T03:35:09.065Z,4.43
2022-10-28T03:37:35.659Z,4.10
2022-10-28T03:40:02.942Z,4.70
2022-10-28T03:42:29.674Z,4.33
2022-10-28T03:44:56.396Z,4.13
2022-10-28T03:47:23.039Z,4.17
2022-10-28T03:49:49.552Z,3.93
2022-10-28T03:52:16.736Z,4.03
2022-10-28T03:54:43.459Z,4.20
2022-10-28T03:57:09.989Z,4.67
2022-10-28T03:59:36.595Z,4.63
2022-10-28T04:02:03.329Z,4.60
2022-10-28T04:04:30.902Z,4.57
2022-10-28T04:06:57.534Z,4.50
2022-10-28T04:09:24.080Z,5.17
2022-10-28T04:11:50.645Z,4.80
2022-10-28T04:14:17.259Z,5.23
2022-10-28T04:16:43.882Z,4.60
2022-10-28T04:19:10.439Z,4.77
2022-10-28T04:21:37.188Z,5.13
2022-10-28T04:24:03.889Z,4.83
2022-10-28T04:26:32.063Z,4.50
2022-10-28T04:28:58.624Z,4.90
2022-10-28T04:31:25.195Z,4.60
2022-10-28T04:33:51.715Z,5.00
2022-10-28T04:36:19.249Z,5.00
2022-10-28T04:38:45.830Z,4.67
2022-10-28T04:41:13.537Z,5.00
2022-10-28T04:43:40.108Z,5.03
2022-10-28T04:46:06.805Z,4.90
2022-10-28T04:48:33.764Z,4.93
2022-10-28T04:51:00.370Z,4.83
2022-10-28T04:53:26.997Z,4.90
2022-10-28T04:55:56.992Z,5.13
2022-10-28T04:58:24.198Z,4.87
2022-10-28T05:00:50.822Z,4.83
2022-10-28T05:03:17.444Z,4.73
2022-10-28T05:05:44.002Z,5.13
2022-10-28T05:08:10.787Z,4.70
2022-10-28T05:10:37.489Z,4.77
2022-10-28T05:13:04.139Z,4.80
2022-10-28T05:15:31.479Z,4.60
2022-10-28T05:17:58.114Z,5.13
2022-10-28T05:20:24.666Z,5.80
2022-10-28T05:22:53.921Z,7.17
2022-10-28T05:25:21.248Z,6.53
2022-10-28T05:27:47.800Z,5.77
2022-10-28T05:30:14.757Z,5.90
2022-10-28T05:32:41.701Z,5.27
2022-10-28T05:35:08.786Z,5.20
2022-10-28T05:37:35.446Z,4.77
2022-10-28T05:40:02.058Z,4.87
2022-10-28T05:42:28.555Z,4.87
2022-10-28T05:44:55.165Z,4.40
2022-10-28T05:47:21.874Z,4.53
2022-10-28T05:49:48.415Z,4.73
2022-10-28T05:52:15.205Z,4.63
2022-10-28T05:54:41.815Z,4.63
2022-10-28T05:57:08.808Z,5.03
2022-10-28T05:59:35.379Z,4.77
2022-10-28T06:02:01.954Z,5.77
2022-10-28T06:04:28.552Z,5.33
2022-10-28T06:06:56.328Z,5.07
2022-10-28T06:09:22.870Z,4.83
2022-10-28T06:11:47.870Z,5.87
2022-10-28T06:14:14.433Z,5.37
2022-10-28T06:16:42.368Z,5.70
2022-10-28T06:19:09.031Z,5.70
2022-10-28T06:21:35.592Z,4.93
2022-10-28T06:24:02.296Z,5.60
2022-10-28T06:26:28.907Z,4.87
2022-10-28T06:28:55.563Z,5.47
2022-10-28T06:31:22.163Z,5.63
2022-10-28T06:33:48.711Z,5.27
2022-10-28T06:36:15.308Z,4.53
2022-10-28T06:38:41.932Z,4.93
2022-10-28T06:41:08.552Z,5.40
2022-10-28T06:43:35.134Z,5.23
2022-10-28T06:46:02.215Z,4.33
2022-10-28T06:48:30.537Z,5.47
2022-10-28T06:50:58.170Z,5.10
2022-10-28T06:53:25.409Z,5.20
2022-10-28T06:55:52.727Z,5.20
2022-10-28T06:58:19.294Z,5.07
2022-10-28T07:00:45.847Z,4.97
2022-10-28T07:03:21.766Z,4.50
2022-10-28T07:05:49.420Z,4.67
2022-10-28T07:08:16.916Z,4.83
2022-10-28T07:10:43.567Z,5.20
2022-10-28T07:13:10.227Z,4.80
2022-10-28T07:15:36.751Z,5.17
2022-10-28T07:18:03.410Z,4.37
2022-10-28T07:20:32.179Z,5.30
2022-10-28T07:22:59.811Z,4.47
2022-10-28T07:25:27.327Z,4.50
2022-10-28T07:27:54.510Z,4.83
2022-10-28T07:30:21.400Z,4.93
2022-10-28T07:32:48.020Z,4.87
2022-10-28T07:35:14.668Z,4.80
2022-10-28T07:37:41.242Z,3.80
2022-10-28T07:40:08.117Z,4.37
2022-10-28T07:42:35.028Z,4.97
2022-10-28T07:45:01.618Z,4.63
2022-10-28T07:47:29.399Z,4.63
2022-10-28T07:49:56.249Z,4.87
2022-10-28T07:52:22.898Z,4.67
2022-10-28T07:54:50.583Z,4.50
2022-10-28T07:57:17.155Z,5.03
2022-10-28T07:59:43.685Z,4.83
2022-10-28T08:02:15.673Z,5.30
2022-10-28T08:04:42.360Z,4.83
2022-10-28T08:07:09.074Z,5.00
2022-10-28T08:09:35.831Z,5.20
2022-10-28T08:12:02.456Z,5.40
2022-10-28T08:14:29.024Z,4.60
2022-10-28T08:16:55.635Z,5.60
2022-10-28T08:19:22.374Z,4.90
2022-10-28T08:21:48.950Z,5.20
2022-10-28T08:24:15.696Z,5.07
2022-10-28T08:26:42.454Z,5.20
2022-10-28T08:29:12.386Z,5.17
2022-10-28T08:31:39.634Z,5.63
2022-10-28T08:34:06.606Z,5.80
2022-10-28T08:36:33.526Z,4.80
2022-10-28T08:39:01.706Z,4.63
2022-10-28T08:41:28.304Z,5.13
2022-10-28T08:44:01.060Z,6.03
2022-10-28T08:46:36.952Z,6.23
2022-10-28T08:49:08.818Z,5.53
2022-10-28T08:51:41.507Z,5.87
2022-10-28T08:54:31.266Z,5.70
2022-10-28T08:57:00.599Z,5.40
2022-10-28T08:59:31.346Z,4.50
2022-10-28T09:02:03.237Z,5.03
2022-10-28T09:04:39.297Z,5.60
2022-10-28T09:07:06.508Z,4.63
2022-10-28T09:09:33.245Z,5.13
2022-10-28T09:12:12.031Z,4.70
2022-10-28T09:14:41.373Z,4.73
2022-10-28T09:17:40.193Z,5.17
2022-10-28T09:20:20.672Z,4.53
2022-10-28T09:22:57.944Z,4.00
2022-10-28T09:25:30.754Z,3.07
2022-10-28T09:28:06.245Z,3.30
2022-10-28T09:30:37.682Z,3.37
2022-10-28T09:33:23.159Z,3.43
2022-10-28T09:35:50.240Z,3.00
2022-10-28T09:38:19.812Z,3.67
2022-10-28T09:40:51.188Z,3.47
2022-10-28T09:43:29.829Z,3.10
2022-10-28T09:46:00.840Z,3.53
2022-10-28T09:48:29.529Z,3.63
2022-10-28T09:50:57.041Z,2.90
2022-10-28T09:53:50.191Z,3.07
2022-10-28T09:56:16.819Z,3.30
2022-10-28T09:58:46.967Z,3.37
2022-10-28T10:01:14.364Z,3.80
2022-10-28T10:03:41.865Z,3.10
2022-10-28T10:06:17.005Z,3.57
2022-10-28T10:08:45.186Z,3.20
2022-10-28T10:11:44.187Z,3.40
2022-10-28T10:14:12.523Z,3.53
2022-10-28T10:16:40.650Z,4.10
2022-10-28T10:19:08.534Z,4.60
2022-10-28T10:21:45.713Z,3.37
2022-10-28T10:24:24.239Z,3.43
2022-10-28T10:26:51.890Z,3.60
2022-10-28T10:29:18.890Z,3.30
2022-10-28T10:32:04.522Z,3.10
2022-10-28T10:34:31.369Z,2.90
2022-10-28T10:36:58.096Z,3.80
2022-10-28T10:39:27.883Z,2.87
2022-10-28T10:41:55.513Z,3.37
2022-10-28T10:44:32.859Z,3.50
2022-10-28T10:47:03.480Z,3.37
2022-10-28T10:49:33.219Z,3.53
2022-10-28T10:52:04.600Z,3.70
2022-10-28T10:54:32.026Z,3.83
2022-10-28T10:57:16.064Z,3.10
2022-10-28T10:59:45.859Z,3.57
2022-10-28T11:02:31.416Z,3.47
2022-10-28T11:05:01.422Z,3.23
2022-10-28T11:07:29.209Z,2.90
2022-10-28T11:09:55.925Z,3.20
2022-10-28T11:12:27.587Z,3.20
2022-10-28T11:15:04.806Z,3.97
2022-10-28T11:20:25.501Z,3.07
2022-10-28T11:22:52.384Z,3.73
2022-10-28T11:25:22.218Z,3.30
2022-10-28T11:30:46.457Z,3.70
2022-10-28T11:33:29.972Z,3.60
2022-10-28T11:36:11.637Z,3.40
2022-10-28T11:38:57.258Z,3.30
2022-10-28T11:41:35.728Z,3.80
2022-10-28T11:44:05.579Z,3.53
2022-10-28T11:46:38.343Z,3.40
2022-10-28T11:49:14.235Z,3.40
2022-10-28T11:51:51.810Z,3.47
2022-10-28T11:54:24.121Z,3.20
2022-10-28T11:57:07.414Z,2.90
2022-10-28T11:59:36.831Z,2.97
2022-10-28T12:02:18.618Z,3.80
2022-10-28T12:04:45.208Z,3.37
2022-10-28T12:07:19.625Z,3.30
2022-10-28T12:10:01.553Z,3.80
2022-10-28T12:12:31.300Z,3.30
2022-10-28T12:15:04.036Z,3.20
2022-10-28T12:17:30.604Z,3.67
2022-10-28T12:19:59.262Z,3.57
2022-10-28T12:22:34.245Z,3.13
2022-10-28T12:25:03.341Z,3.27
2022-10-28T12:27:31.275Z,3.33
2022-10-28T12:30:14.082Z,3.93
2022-10-28T12:32:41.509Z,3.27
2022-10-28T12:35:14.438Z,3.37
2022-10-28T12:37:58.459Z,3.50
2022-10-28T12:40:27.337Z,3.73
2022-10-28T12:42:59.596Z,3.10
2022-10-28T12:45:27.087Z,3.87
2022-10-28T12:48:08.826Z,3.00
2022-10-28T12:50:44.743Z,3.07
2022-10-28T12:53:19.061Z,3.47
2022-10-28T12:55:49.284Z,3.30
2022-10-28T12:58:18.966Z,3.20
2022-10-28T13:00:47.683Z,3.57
2022-10-28T13:03:15.034Z,3.90
2022-10-28T13:06:00.572Z,3.50
2022-10-28T13:08:45.878Z,3.73
2022-10-28T13:11:15.735Z,3.70
2022-10-28T13:13:45.494Z,3.40
2022-10-28T13:16:28.181Z,3.53
2022-10-28T13:18:54.820Z,4.40
2022-10-28T13:21:30.422Z,3.80
2022-10-28T13:24:00.126Z,3.40
2022-10-28T13:26:28.349Z,3.83
2022-10-28T13:28:57.089Z,3.47
2022-10-28T13:31:24.067Z,3.10
2022-10-28T13:33:53.042Z,4.27
2022-10-28T13:36:19.650Z,4.07
2022-10-28T13:38:50.834Z,3.80
2022-10-28T13:41:29.086Z,3.83
2022-10-28T13:43:56.539Z,4.00
2022-10-28T13:46:41.938Z,4.27
2022-10-28T13:49:24.648Z,3.93
2022-10-28T13:51:52.481Z,3.70
2022-10-28T13:54:27.055Z,4.03
2022-10-28T13:56:54.126Z,6.57
2022-10-28T13:59:23.848Z,4.00
2022-10-28T14:02:01.312Z,3.60
2022-10-28T14:04:38.571Z,3.73
2022-10-28T14:07:11.453Z,4.00
2022-10-28T14:09:41.155Z,3.87
2022-10-28T14:12:14.088Z,3.77
2022-10-28T14:14:56.256Z,3.33
2022-10-28T14:17:24.325Z,4.43
2022-10-28T14:19:51.981Z,3.67
2022-10-28T14:22:33.468Z,3.40
2022-10-28T14:25:00.102Z,3.87
2022-10-28T14:27:27.728Z,3.33
2022-10-28T14:29:57.340Z,4.03
2022-10-28T14:32:33.124Z,3.60
2022-10-28T14:35:02.492Z,3.63
2022-10-28T14:37:48.988Z,3.90
2022-10-28T14:40:15.572Z,3.70
2022-10-28T14:42:54.510Z,3.67
2022-10-28T14:45:21.160Z,4.40
2022-10-28T14:47:54.078Z,3.83
2022-10-28T14:50:26.335Z,3.87
2022-10-28T14:52:53.897Z,3.60
2022-10-28T14:55:34.023Z,3.70
2022-10-28T14:58:13.628Z,4.17
2022-10-28T15:00:44.684Z,3.73
2022-10-28T15:03:11.915Z,3.80
2022-10-28T15:05:38.508Z,3.60
2022-10-28T15:08:05.934Z,4.10
2022-10-28T15:10:33.887Z,3.40
2022-10-28T15:13:00.837Z,3.90
2022-10-28T15:15:27.620Z,4.30
2022-10-28T15:17:54.780Z,3.77
2022-10-28T15:20:21.754Z,3.73
2022-10-28T15:22:48.922Z,3.93
2022-10-28T15:25:16.813Z,3.30
2022-10-28T15:27:44.609Z,3.67
2022-10-28T15:30:20.807Z,4.33
2022-10-28T15:32:47.540Z,4.30
2022-10-28T15:35:36.110Z,3.87
2022-10-28T15:38:03.621Z,3.53
2022-10-28T15:40:34.243Z,4.00
2022-10-28T15:43:05.406Z,3.97
2022-10-28T15:45:35.181Z,4.03
2022-10-28T15:48:11.531Z,3.67
2022-10-28T15:50:38.227Z,4.07
2022-10-28T15:53:11.030Z,3.90
2022-10-28T15:58:30.746Z,3.93
2022-10-28T16:00:58.408Z,4.73
2022-10-28T16:03:40.276Z,4.23
2022-10-28T16:06:19.593Z,4.33
2022-10-28T16:08:46.702Z,4.23
2022-10-28T16:11:16.090Z,4.10
2022-10-28T16:13:47.270Z,3.90
2022-10-28T16:16:24.188Z,4.30
2022-10-28T16:18:57.047Z,4.67
2022-10-28T16:21:24.612Z,4.27
2022-10-28T16:23:52.464Z,4.43
2022-10-28T16:26:19.312Z,4.30
2022-10-28T16:28:46.127Z,4.97
2022-10-28T16:31:15.211Z,4.33
2022-10-28T16:33:42.091Z,4.43
2022-10-28T16:36:09.175Z,4.93
2022-10-28T16:38:36.612Z,4.13
2022-10-28T16:41:04.629Z,4.77
2022-10-28T16:43:31.764Z,5.37
2022-10-28T16:45:59.511Z,4.30
2022-10-28T16:48:27.670Z,4.50
2022-10-28T16:51:01.892Z,4.50
2022-10-28T16:53:28.795Z,5.07
2022-10-28T16:55:59.062Z,4.60
2022-10-28T16:58:27.046Z,5.23
2022-10-28T17:00:54.250Z,4.83
2022-10-28T17:03:21.040Z,4.80
2022-10-28T17:05:48.226Z,4.37
2022-10-28T17:08:15.122Z,4.50
2022-10-28T17:10:42.607Z,4.40
2022-10-28T17:13:13.300Z,4.83
2022-10-28T17:15:40.730Z,4.50
2022-10-28T17:18:09.079Z,4.70
2022-10-28T17:20:36.076Z,5.40
2022-10-28T17:23:04.080Z,5.17
2022-10-28T17:25:30.775Z,5.33
2022-10-28T17:27:57.864Z,5.20
2022-10-28T17:30:24.960Z,4.67
2022-10-28T17:32:52.537Z,5.17
2022-10-28T17:35:20.198Z,5.17
2022-10-28T17:37:47.194Z,5.13
2022-10-28T17:40:14.257Z,5.00
2022-10-28T17:42:41.042Z,4.33
2022-10-28T17:45:07.984Z,5.10
2022-10-28T17:47:35.026Z,4.70
2022-10-28T17:50:01.842Z,4.63
2022-10-28T17:52:30.902Z,5.17
2022-10-28T17:54:59.845Z,4.40
2022-10-28T17:57:26.587Z,4.60
2022-10-28T17:59:53.266Z,4.70
2022-10-28T18:02:20.327Z,4.80
2022-10-28T18:04:47.127Z,4.50
2022-10-28T18:07:13.852Z,4.90
2022-10-28T18:09:42.133Z,4.83
2022-10-28T18:12:10.164Z,4.70
2022-10-28T18:14:36.917Z,4.20
2022-10-28T18:17:03.778Z,4.60
2022-10-28T18:19:30.590Z,5.13
2022-10-28T18:21:57.270Z,4.90
2022-10-28T18:24:26.193Z,4.70
2022-10-28T18:26:56.346Z,4.47
2022-10-28T18:29:23.261Z,4.77
2022-10-28T18:31:49.963Z,5.07
2022-10-28T18:34:17.001Z,5.03
2022-10-28T18:36:43.834Z,4.57
2022-10-28T18:39:10.482Z,5.00
2022-10-28T18:41:41.761Z,4.83
2022-10-28T18:44:14.130Z,4.97
2022-10-28T18:46:41.102Z,5.60
2022-10-28T18:49:07.722Z,5.27
2022-10-28T18:51:34.739Z,4.77
2022-10-28T18:54:02.104Z,5.63
2022-10-28T18:56:29.441Z,5.17
2022-10-28T18:58:57.074Z,5.03
2022-10-28T19:01:28.239Z,4.77
2022-10-28T19:03:58.276Z,4.53
2022-10-28T19:06:26.225Z,4.70
2022-10-28T19:08:54.037Z,4.77
2022-10-28T19:11:21.604Z,4.67
2022-10-28T19:13:48.777Z,5.27
2022-10-28T19:16:15.524Z,5.53
2022-10-28T19:18:42.213Z,4.33
2022-10-28T19:21:11.850Z,4.77
2022-10-28T19:23:38.514Z,4.40
2022-10-28T19:26:05.729Z,5.20
2022-10-28T19:28:39.529Z,5.43
2022-10-28T19:31:07.496Z,5.03
2022-10-28T19:33:35.769Z,5.30
2022-10-28T19:36:05.563Z,4.87
2022-10-28T19:38:33.238Z,4.77
2022-10-28T19:41:10.428Z,5.27
2022-10-28T19:43:37.300Z,4.80
2022-10-28T19:46:11.542Z,5.30
2022-10-28T19:48:39.058Z,5.10
2022-10-28T19:51:06.213Z,4.90
2022-10-28T19:53:32.827Z,4.77
2022-10-28T19:56:00.577Z,5.17
2022-10-28T19:58:28.199Z,5.30
2022-10-28T20:00:58.720Z,5.37
2022-10-28T20:03:25.386Z,4.93
2022-10-28T20:05:58.780Z,4.77
2022-10-28T20:08:25.491Z,4.87
2022-10-28T20:11:02.263Z,4.60
2022-10-28T20:13:29.387Z,4.97
2022-10-28T20:15:56.701Z,4.90
2022-10-28T20:18:23.390Z,4.77
2022-10-28T20:20:50.031Z,5.10
2022-10-28T20:23:16.642Z,4.60
2022-10-28T20:25:50.508Z,5.43
2022-10-28T20:28:17.216Z,4.53
2022-10-28T20:30:43.874Z,4.83
2022-10-28T20:33:10.519Z,4.83
2022-10-28T20:35:37.204Z,4.43
2022-10-28T20:38:03.960Z,4.70
2022-10-28T20:40:30.679Z,4.80
2022-10-28T20:42:57.846Z,4.37
2022-10-28T20:45:24.659Z,4.67
2022-10-28T20:47:52.758Z,4.77
2022-10-28T20:50:19.434Z,5.40
2022-10-28T20:52:46.096Z,4.73
2022-10-28T20:55:13.886Z,5.03
2022-10-28T20:57:42.258Z,4.53
2022-10-28T21:00:09.328Z,4.43
2022-10-28T21:02:36.678Z,4.83
2022-10-28T21:05:03.578Z,4.63
2022-10-28T21:07:32.448Z,5.07
2022-10-28T21:09:59.229Z,4.67
2022-10-28T21:12:25.998Z,5.10
2022-10-28T21:14:52.568Z,5.40
2022-10-28T21:17:19.157Z,5.20
2022-10-28T21:19:45.761Z,5.23
2022-10-28T21:22:12.420Z,4.87
2022-10-28T21:24:39.011Z,4.47
2022-10-28T21:27:05.629Z,4.43
2022-10-28T21:29:32.302Z,4.57
2022-10-28T21:31:58.983Z,4.40
2022-10-28T21:34:25.575Z,4.60
2022-10-28T21:36:52.196Z,4.47
2022-10-28T21:39:18.760Z,4.37
2022-10-28T21:41:45.395Z,4.10
2022-10-28T21:44:12.305Z,4.43
2022-10-28T21:46:38.936Z,4.80
2022-10-28T21:49:05.484Z,4.20
2022-10-28T21:51:32.081Z,4.80
2022-10-28T21:53:58.660Z,3.93
2022-10-28T21:56:25.386Z,4.17
2022-10-28T21:58:52.159Z,4.80
2022-10-28T22:01:20.345Z,4.40
2022-10-28T22:03:47.199Z,5.03
2022-10-28T22:06:14.243Z,4.90
2022-10-28T22:08:41.001Z,5.13
2022-10-28T22:11:11.530Z,4.57
2022-10-28T22:13:38.179Z,4.60
2022-10-28T22:16:06.275Z,5.93
2022-10-28T22:18:33.818Z,5.47
2022-10-28T22:21:04.593Z,4.50
2022-10-28T22:23:31.428Z,5.17
2022-10-28T22:26:01.847Z,4.77
2022-10-28T22:28:28.528Z,13.53
2022-10-28T22:30:59.375Z,7.23
2022-10-28T22:33:26.039Z,27.83
2022-10-28T22:35:59.487Z,13.43
2022-10-28T22:38:26.591Z,29.03
2022-10-28T22:41:02.814Z,14.27
2022-10-28T22:43:29.478Z,10.47
2022-10-28T22:45:57.126Z,17.70
2022-10-28T22:48:23.762Z,10.27
2022-10-28T22:50:50.434Z,5.80
2022-10-28T22:53:17.159Z,5.67
2022-10-28T22:55:43.762Z,4.87
2022-10-28T22:58:10.374Z,5.17
2022-10-28T23:00:37.007Z,4.90
2022-10-28T23:03:03.792Z,5.23
2022-10-28T23:05:30.514Z,4.67
2022-10-28T23:07:59.535Z,4.90
2022-10-28T23:10:26.587Z,4.37
2022-10-28T23:12:57.204Z,4.90
2022-10-28T23:15:24.494Z,4.77
2022-10-28T23:17:51.709Z,5.23
2022-10-28T23:20:18.821Z,4.63
2022-10-28T23:22:45.434Z,5.20
2022-10-28T23:25:12.366Z,5.70
2022-10-28T23:27:40.083Z,5.07
2022-10-28T23:30:07.446Z,5.23
2022-10-28T23:32:34.026Z,4.80
2022-10-28T23:35:00.891Z,4.63
2022-10-28T23:37:27.563Z,5.07
2022-10-28T23:39:54.148Z,5.07
2022-10-28T23:42:20.876Z,4.83
2022-10-28T23:44:47.473Z,4.87
2022-10-28T23:47:14.084Z,5.43
2022-10-28T23:49:40.738Z,5.70
2022-10-28T23:52:07.365Z,5.50
2022-10-28T23:54:34.183Z,5.00
2022-10-28T23:57:00.774Z,4.20
2022-10-28T23:59:27.495Z,4.50
